createdAt,value
2022-10-30T00:00:55.538Z,10.08
2022-10-30T00:03:22.417Z,9.95
2022-10-30T00:05:51.874Z,9.88
2022-10-30T00:08:21.098Z,9.80
2022-10-30T00:10:50.400Z,9.77
2022-10-30T00:13:18.644Z,9.83
2022-10-30T00:15:50.037Z,9.90
2022-10-30T00:18:17.526Z,9.93
2022-10-30T00:20:44.437Z,10.08
2022-10-30T00:23:11.315Z,9.98
2022-10-30T00:25:38.251Z,9.92
2022-10-30T00:28:07.350Z,9.86
2022-10-30T00:30:35.479Z,9.88
2022-10-30T00:33:03.212Z,9.89
2022-10-30T00:35:30.603Z,9.88
2022-10-30T00:37:58.232Z,9.75
2022-10-30T00:40:25.232Z,9.81
2022-10-30T00:42:52.201Z,9.81
2022-10-30T00:45:19.391Z,9.77
2022-10-30T00:48:02.686Z,9.80
2022-10-30T00:50:32.150Z,10.01
2022-10-30T00:53:10.014Z,10.19
2022-10-30T00:55:42.270Z,10.24
2022-10-30T00:58:13.524Z,10.24
2022-10-30T01:00:43.963Z,10.24
2022-10-30T01:03:11.529Z,10.31
2022-10-30T01:05:39.536Z,10.39
2022-10-30T01:08:06.435Z,10.39
2022-10-30T01:10:33.567Z,10.20
2022-10-30T01:13:01.922Z,9.85
2022-10-30T01:15:35.386Z,9.81
2022-10-30T01:18:21.302Z,9.41
2022-10-30T01:20:54.307Z,9.23
2022-10-30T01:23:59.223Z,9.38
2022-10-30T01:26:47.829Z,9.14
2022-10-30T01:29:37.278Z,8.77
2022-10-30T01:32:04.102Z,8.58
2022-10-30T01:34:47.737Z,8.58
2022-10-30T01:37:36.252Z,8.55
2022-10-30T01:40:14.917Z,8.35
2022-10-30T01:42:58.447Z,8.57
2022-10-30T01:46:02.643Z,8.69
2022-10-30T01:48:32.676Z,8.84
2022-10-30T01:51:26.748Z,8.85
2022-10-30T01:54:05.676Z,8.97
2022-10-30T01:56:50.754Z,8.80
2022-10-30T01:59:26.103Z,8.84
2022-10-30T02:01:53.373Z,8.95
2022-10-30T02:04:20.905Z,9.19
2022-10-30T02:06:48.068Z,9.32
2022-10-30T02:09:16.580Z,9.34
2022-10-30T02:11:48.448Z,9.31
2022-10-30T02:14:21.177Z,9.17
2022-10-30T02:16:51.575Z,9.20
2022-10-30T02:19:20.192Z,9.17
2022-10-30T02:21:47.057Z,9.07
2022-10-30T02:24:14.024Z,9.10
2022-10-30T02:26:40.877Z,9.03
2022-10-30T02:29:07.993Z,9.06
2022-10-30T02:31:35.728Z,9.01
2022-10-30T02:34:02.667Z,9.06
2022-10-30T02:36:29.709Z,8.98
2022-10-30T02:38:56.699Z,9.00
2022-10-30T02:41:24.236Z,8.82
2022-10-30T02:43:53.471Z,8.63
2022-10-30T02:46:20.786Z,8.73
2022-10-30T02:48:49.163Z,8.74
2022-10-30T02:51:16.318Z,8.75
2022-10-30T02:53:43.365Z,8.83
2022-10-30T02:56:13.204Z,8.76
2022-10-30T02:58:42.214Z,8.64
2022-10-30T03:01:14.987Z,8.39
2022-10-30T03:03:43.479Z,8.35
2022-10-30T03:06:13.946Z,8.42
2022-10-30T03:08:42.056Z,8.41
2022-10-30T03:11:12.127Z,8.17
2022-10-30T03:13:41.021Z,8.12
2022-10-30T03:16:16.387Z,8.06
2022-10-30T03:18:44.387Z,8.05
2022-10-30T03:21:15.193Z,8.04
2022-10-30T03:23:43.845Z,8.23
2022-10-30T03:26:10.989Z,8.37
2022-10-30T03:28:47.849Z,8.60
2022-10-30T03:31:17.777Z,8.80
2022-10-30T03:33:45.969Z,8.87
2022-10-30T03:36:14.801Z,8.96
2022-10-30T03:38:41.737Z,8.98
2022-10-30T03:41:10.330Z,9.20
2022-10-30T03:43:37.292Z,9.29
2022-10-30T03:46:04.963Z,9.36
2022-10-30T03:48:32.549Z,9.38
2022-10-30T03:51:00.209Z,9.38
2022-10-30T03:53:29.086Z,9.20
2022-10-30T03:56:01.273Z,9.00
2022-10-30T03:58:36.058Z,8.64
2022-10-30T04:01:05.860Z,8.11
2022-10-30T04:03:36.242Z,8.06
2022-10-30T04:06:03.424Z,7.98
2022-10-30T04:08:30.294Z,7.73
2022-10-30T04:10:57.816Z,7.46
2022-10-30T04:13:24.917Z,7.43
2022-10-30T04:15:58.818Z,7.41
2022-10-30T04:18:26.715Z,7.56
2022-10-30T04:20:55.502Z,7.67
2022-10-30T04:23:22.838Z,7.65
2022-10-30T04:25:49.901Z,7.72
2022-10-30T04:28:17.554Z,7.80
2022-10-30T04:30:45.854Z,7.93
2022-10-30T04:33:14.465Z,7.99
2022-10-30T04:35:42.001Z,7.83
2022-10-30T04:38:14.766Z,7.70
2022-10-30T04:40:44.281Z,7.51
2022-10-30T04:43:13.930Z,7.52
2022-10-30T04:45:43.028Z,7.52
2022-10-30T04:48:18.490Z,7.53
2022-10-30T04:50:47.330Z,7.63
2022-10-30T04:53:22.978Z,7.56
2022-10-30T04:55:55.766Z,7.70
2022-10-30T04:58:22.908Z,7.91
2022-10-30T05:01:03.804Z,8.07
2022-10-30T05:03:31.452Z,8.21
2022-10-30T05:06:03.926Z,8.30
2022-10-30T05:08:30.871Z,8.38
2022-10-30T05:11:04.482Z,8.46
2022-10-30T05:13:31.729Z,8.47
2022-10-30T05:15:58.591Z,8.64
2022-10-30T05:18:25.578Z,8.75
2022-10-30T05:20:53.045Z,8.79
2022-10-30T05:23:19.990Z,8.84
2022-10-30T05:25:47.006Z,8.86
2022-10-30T05:28:16.122Z,8.93
2022-10-30T05:30:53.383Z,9.02
2022-10-30T05:33:43.145Z,9.01
2022-10-30T05:36:10.131Z,8.88
2022-10-30T05:38:37.147Z,8.84
2022-10-30T05:41:07.321Z,8.61
2022-10-30T05:43:34.264Z,8.80
2022-10-30T05:46:01.349Z,8.76
2022-10-30T05:48:28.345Z,8.73
2022-10-30T05:50:57.536Z,8.85
2022-10-30T05:53:27.768Z,8.88
2022-10-30T05:55:58.101Z,9.02
2022-10-30T05:58:27.500Z,9.15
2022-10-30T06:00:56.882Z,9.37
2022-10-30T06:03:38.651Z,9.48
2022-10-30T06:06:06.556Z,9.54
2022-10-30T06:08:33.504Z,9.57
2022-10-30T06:11:04.621Z,9.71
2022-10-30T06:13:40.418Z,9.78
2022-10-30T06:16:11.836Z,9.79
2022-10-30T06:18:57.267Z,10.10
2022-10-30T06:21:25.584Z,10.24
2022-10-30T06:24:13.080Z,10.40
2022-10-30T06:26:50.932Z,10.48
2022-10-30T06:29:17.919Z,10.40
2022-10-30T06:31:45.529Z,10.57
2022-10-30T06:34:12.929Z,10.92
2022-10-30T06:36:41.617Z,10.95
2022-10-30T06:39:08.524Z,11.14
2022-10-30T06:41:42.628Z,11.29
2022-10-30T06:44:23.770Z,11.41
2022-10-30T06:46:53.180Z,11.51
2022-10-30T06:49:20.671Z,11.67
2022-10-30T06:51:50.309Z,11.83
2022-10-30T06:54:17.698Z,11.99
2022-10-30T06:56:51.769Z,12.20
2022-10-30T06:59:30.372Z,12.36
2022-10-30T07:02:14.156Z,12.61
2022-10-30T07:04:57.152Z,12.78
2022-10-30T07:07:24.383Z,12.80
2022-10-30T07:09:51.628Z,12.95
2022-10-30T07:12:23.767Z,13.09
2022-10-30T07:15:00.595Z,13.35
2022-10-30T07:18:06.260Z,13.35
2022-10-30T07:20:37.361Z,13.53
2022-10-30T07:23:05.491Z,13.83
2022-10-30T07:25:32.832Z,13.96
2022-10-30T07:28:25.896Z,14.01
2022-10-30T07:31:12.773Z,14.04
2022-10-30T07:34:02.713Z,14.17
2022-10-30T07:36:48.178Z,14.19
2022-10-30T07:39:35.634Z,14.26
2022-10-30T07:42:23.781Z,14.58
2022-10-30T07:45:06.411Z,14.47
2022-10-30T07:47:53.667Z,14.62
2022-10-30T07:50:34.702Z,14.79
2022-10-30T07:53:01.583Z,14.98
2022-10-30T07:55:31.612Z,15.15
2022-10-30T07:58:18.754Z,15.37
2022-10-30T08:01:11.515Z,15.60
2022-10-30T08:03:38.497Z,15.60
2022-10-30T08:06:11.482Z,15.88
2022-10-30T08:08:42.957Z,15.99
2022-10-30T08:11:30.690Z,16.17
2022-10-30T08:13:59.460Z,16.35
2022-10-30T08:16:26.965Z,16.50
2022-10-30T08:18:54.371Z,16.65
2022-10-30T08:21:24.931Z,16.75
2022-10-30T08:23:58.606Z,16.56
2022-10-30T08:26:28.253Z,16.84
2022-10-30T08:28:55.119Z,17.01
2022-10-30T08:31:24.214Z,17.20
2022-10-30T08:34:11.297Z,17.17
2022-10-30T08:36:52.154Z,17.23
2022-10-30T08:39:20.046Z,17.24
2022-10-30T08:42:19.161Z,17.42
2022-10-30T08:44:46.184Z,17.53
2022-10-30T08:47:31.768Z,17.53
2022-10-30T08:49:58.808Z,17.68
2022-10-30T08:52:30.604Z,17.77
2022-10-30T08:54:57.472Z,17.91
2022-10-30T08:57:27.512Z,18.01
2022-10-30T08:59:56.992Z,17.99
2022-10-30T09:02:56.912Z,18.09
2022-10-30T09:05:42.944Z,18.20
2022-10-30T09:08:30.126Z,18.27
2022-10-30T09:11:06.531Z,18.52
2022-10-30T09:13:33.821Z,18.58
2022-10-30T09:16:03.442Z,18.58
2022-10-30T09:18:33.237Z,18.71
2022-10-30T09:21:03.193Z,18.89
2022-10-30T09:23:35.348Z,18.93
2022-10-30T09:26:25.583Z,18.96
2022-10-30T09:28:59.614Z,19.00
2022-10-30T09:31:46.916Z,19.21
2022-10-30T09:34:17.678Z,19.22
2022-10-30T09:36:57.445Z,19.42
2022-10-30T09:39:25.547Z,19.53
2022-10-30T09:42:05.156Z,19.52
2022-10-30T09:44:45.808Z,19.64
2022-10-30T09:47:24.953Z,19.72
2022-10-30T09:50:00.835Z,19.88
2022-10-30T09:52:32.690Z,19.94
2022-10-30T09:55:11.127Z,19.97
2022-10-30T09:57:57.213Z,20.12
2022-10-30T10:00:34.543Z,20.30
2022-10-30T10:03:24.700Z,20.41
2022-10-30T10:06:25.052Z,20.48
2022-10-30T10:09:09.220Z,20.61
2022-10-30T10:12:42.855Z,20.63
2022-10-30T10:15:47.625Z,20.78
2022-10-30T10:18:40.138Z,20.87
2022-10-30T10:21:25.540Z,20.91
2022-10-30T10:23:56.158Z,21.05
2022-10-30T10:26:41.987Z,21.11
2022-10-30T10:29:26.815Z,21.17
2022-10-30T10:32:28.422Z,21.24
2022-10-30T10:35:19.831Z,21.34
2022-10-30T10:37:55.753Z,21.56
2022-10-30T10:40:31.907Z,21.52
2022-10-30T10:43:25.508Z,21.65
2022-10-30T10:46:04.346Z,21.70
2022-10-30T10:48:48.879Z,21.77
2022-10-30T10:51:24.533Z,21.65
2022-10-30T10:54:15.157Z,21.76
2022-10-30T10:56:45.471Z,21.86
2022-10-30T10:59:20.280Z,21.93
2022-10-30T11:02:14.547Z,21.98
2022-10-30T11:04:50.524Z,22.01
2022-10-30T11:07:48.247Z,22.07
2022-10-30T11:10:17.805Z,22.15
2022-10-30T11:12:44.917Z,22.30
2022-10-30T11:15:37.551Z,22.39
2022-10-30T11:18:09.631Z,22.37
2022-10-30T11:20:40.117Z,22.42
2022-10-30T11:23:30.908Z,22.40
2022-10-30T11:25:57.913Z,22.50
2022-10-30T11:28:52.767Z,22.58
2022-10-30T11:31:27.718Z,22.64
2022-10-30T11:33:54.773Z,22.74
2022-10-30T11:36:26.269Z,22.72
2022-10-30T11:39:08.891Z,22.80
2022-10-30T11:41:35.965Z,22.88
2022-10-30T11:44:02.905Z,22.97
2022-10-30T11:46:29.866Z,22.95
2022-10-30T11:48:56.751Z,22.84
2022-10-30T11:51:37.324Z,22.98
2022-10-30T11:54:04.995Z,22.93
2022-10-30T11:56:34.062Z,22.92
2022-10-30T11:59:03.581Z,23.01
2022-10-30T12:04:14.629Z,23.11
2022-10-30T12:06:41.846Z,23.07
2022-10-30T12:09:23.159Z,23.08
2022-10-30T12:11:50.420Z,22.98
2022-10-30T12:14:20.101Z,23.09
2022-10-30T12:16:50.430Z,23.10
2022-10-30T12:19:19.734Z,23.16
2022-10-30T12:21:56.995Z,23.12
2022-10-30T12:24:39.143Z,23.19
2022-10-30T12:27:16.826Z,23.03
2022-10-30T12:30:09.924Z,23.38
2022-10-30T12:32:45.815Z,23.43
2022-10-30T12:35:34.605Z,23.34
2022-10-30T12:38:05.970Z,23.26
2022-10-30T12:40:42.464Z,23.37
2022-10-30T12:43:25.995Z,23.59
2022-10-30T12:45:59.808Z,23.78
2022-10-30T12:48:41.585Z,23.93
2022-10-30T12:51:38.810Z,23.92
2022-10-30T12:54:18.843Z,24.02
2022-10-30T12:56:53.600Z,24.08
2022-10-30T12:59:49.921Z,24.13
2022-10-30T13:02:44.745Z,24.23
2022-10-30T13:05:32.589Z,24.28
2022-10-30T13:08:21.138Z,24.23
2022-10-30T13:11:09.744Z,24.15
2022-10-30T13:13:40.591Z,24.11
2022-10-30T13:16:17.316Z,24.06
2022-10-30T13:18:44.160Z,24.14
2022-10-30T13:21:10.984Z,24.08
2022-10-30T13:23:56.310Z,24.08
2022-10-30T13:26:44.963Z,24.01
2022-10-30T13:29:23.203Z,23.97
2022-10-30T13:32:14.489Z,24.06
2022-10-30T13:34:55.699Z,24.07
2022-10-30T13:37:36.029Z,23.98
2022-10-30T13:40:12.746Z,23.96
2022-10-30T13:43:04.540Z,24.11
2022-10-30T13:45:42.719Z,24.05
2022-10-30T13:48:42.597Z,24.00
2022-10-30T13:51:33.850Z,24.05
2022-10-30T13:54:13.228Z,23.95
2022-10-30T14:15:43.990Z,24.01
2022-10-30T14:18:14.033Z,24.01
2022-10-30T14:20:52.039Z,23.99
2022-10-30T14:23:34.987Z,23.94
2022-10-30T14:26:04.736Z,23.86
2022-10-30T14:28:34.412Z,23.80
2022-10-30T14:31:05.231Z,23.74
2022-10-30T14:33:47.232Z,23.74
2022-10-30T14:36:15.410Z,23.67
2022-10-30T14:38:42.692Z,23.64
2022-10-30T14:41:54.440Z,23.59
2022-10-30T14:44:28.158Z,23.46
2022-10-30T14:47:13.862Z,23.50
2022-10-30T14:50:03.142Z,23.26
2022-10-30T14:52:43.783Z,23.26
2022-10-30T14:55:49.443Z,23.16
2022-10-30T14:58:21.126Z,23.10
2022-10-30T15:00:48.520Z,23.03
2022-10-30T15:03:42.110Z,22.91
2022-10-30T15:06:30.438Z,22.83
2022-10-30T15:09:15.846Z,22.67
2022-10-30T15:12:02.110Z,22.49
2022-10-30T15:14:52.585Z,22.25
2022-10-30T15:17:29.113Z,22.15
2022-10-30T15:19:57.099Z,22.03
2022-10-30T15:22:27.772Z,21.94
2022-10-30T15:24:54.950Z,21.82
2022-10-30T15:27:24.440Z,21.77
2022-10-30T15:29:58.833Z,21.60
2022-10-30T15:32:26.213Z,21.77
2022-10-30T15:35:02.892Z,21.75
2022-10-30T15:37:31.732Z,21.75
2022-10-30T15:40:19.269Z,21.65
2022-10-30T15:52:36.098Z,21.06
2022-10-30T15:55:08.143Z,20.99
2022-10-30T15:58:12.990Z,20.93
2022-10-30T16:00:39.641Z,20.77
2022-10-30T16:03:11.057Z,20.63
2022-10-30T16:05:38.164Z,20.54
2022-10-30T16:08:15.433Z,20.21
2022-10-30T16:10:47.223Z,20.10
2022-10-30T16:13:20.376Z,19.92
2022-10-30T16:15:47.982Z,19.72
2022-10-30T16:18:26.977Z,19.52
2022-10-30T16:21:02.419Z,19.45
2022-10-30T16:23:30.571Z,19.45
2022-10-30T16:25:59.929Z,19.39
2022-10-30T16:28:31.125Z,19.36
2022-10-30T16:31:01.145Z,19.32
2022-10-30T16:33:31.028Z,19.18
2022-10-30T16:35:59.805Z,19.11
2022-10-30T16:38:29.995Z,19.03
2022-10-30T16:40:57.730Z,19.09
2022-10-30T16:43:31.329Z,18.83
2022-10-30T16:46:13.504Z,18.90
2022-10-30T16:48:44.076Z,18.77
2022-10-30T16:51:16.339Z,18.57
2022-10-30T16:53:53.219Z,18.39
2022-10-30T16:56:31.479Z,18.25
2022-10-30T16:59:07.900Z,18.25
2022-10-30T17:01:35.452Z,18.33
2022-10-30T17:04:02.765Z,18.58
2022-10-30T17:06:39.920Z,18.53
2022-10-30T17:09:30.134Z,18.63
2022-10-30T17:12:26.911Z,18.59
2022-10-30T17:15:13.264Z,18.36
2022-10-30T17:17:41.754Z,18.53
2022-10-30T17:20:22.688Z,18.41
2022-10-30T17:23:06.441Z,18.50
2022-10-30T17:25:38.609Z,18.44
2022-10-30T17:28:06.230Z,18.35
2022-10-30T17:30:41.904Z,18.14
2022-10-30T17:33:35.379Z,18.20
2022-10-30T17:36:06.263Z,18.11
2022-10-30T17:38:33.389Z,18.04
2022-10-30T17:41:01.464Z,18.02
2022-10-30T17:43:32.639Z,17.93
2022-10-30T17:46:00.053Z,18.00
2022-10-30T17:48:28.811Z,17.95
2022-10-30T17:50:56.292Z,18.05
2022-10-30T17:53:26.666Z,17.75
2022-10-30T17:56:02.466Z,17.92
2022-10-30T17:58:30.953Z,17.99
2022-10-30T18:00:58.945Z,17.83
2022-10-30T18:03:26.310Z,17.76
2022-10-30T18:05:54.505Z,17.56
2022-10-30T18:08:21.681Z,17.32
2022-10-30T18:10:48.871Z,17.54
2022-10-30T18:13:16.472Z,17.47
2022-10-30T18:15:57.858Z,17.47
2022-10-30T18:18:25.771Z,17.14
2022-10-30T18:20:52.779Z,17.17
2022-10-30T18:26:23.150Z,17.02
2022-10-30T18:28:50.289Z,16.86
2022-10-30T18:31:20.488Z,16.89
2022-10-30T18:33:48.064Z,16.96
2022-10-30T18:36:25.506Z,16.82
2022-10-30T18:38:56.255Z,16.86
2022-10-30T18:41:30.971Z,16.84
2022-10-30T18:43:57.940Z,16.70
2022-10-30T18:46:25.014Z,16.76
2022-10-30T18:48:52.022Z,16.90
2022-10-30T18:51:22.012Z,16.89
2022-10-30T18:53:52.065Z,16.87
2022-10-30T18:56:27.716Z,16.91
2022-10-30T18:59:00.531Z,16.60
2022-10-30T19:01:28.674Z,16.66
2022-10-30T19:03:55.704Z,16.58
2022-10-30T19:06:23.973Z,16.63
2022-10-30T19:08:51.193Z,16.42
2022-10-30T19:11:24.523Z,16.55
2022-10-30T19:13:54.454Z,16.52
2022-10-30T19:16:22.127Z,16.40
2022-10-30T19:18:49.043Z,16.22
2022-10-30T19:21:18.291Z,16.33
2022-10-30T19:23:45.258Z,16.46
2022-10-30T19:26:14.775Z,16.47
2022-10-30T19:28:42.064Z,16.18
2022-10-30T19:31:14.322Z,16.08
2022-10-30T19:33:41.997Z,15.85
2022-10-30T19:36:33.711Z,15.75
2022-10-30T19:39:08.318Z,15.78
2022-10-30T19:41:36.004Z,15.50
2022-10-30T19:44:02.972Z,15.51
2022-10-30T19:46:29.841Z,15.55
2022-10-30T19:48:58.073Z,15.65
2022-10-30T19:51:26.959Z,15.85
2022-10-30T19:53:54.101Z,15.77
2022-10-30T19:56:22.143Z,15.61
2022-10-30T19:58:49.644Z,15.53
2022-10-30T20:01:16.888Z,15.26
2022-10-30T20:03:44.271Z,15.02
2022-10-30T20:06:14.295Z,14.97
2022-10-30T20:08:41.563Z,14.94
2022-10-30T20:11:08.645Z,14.99
2022-10-30T20:13:37.231Z,14.80
2022-10-30T20:16:05.831Z,14.80
2022-10-30T20:18:35.060Z,14.74
2022-10-30T20:21:13.126Z,14.77
2022-10-30T20:23:40.037Z,14.76
2022-10-30T20:26:13.370Z,14.82
2022-10-30T20:28:42.921Z,14.88
2022-10-30T20:31:12.179Z,14.92
2022-10-30T20:33:39.547Z,14.98
2022-10-30T20:36:06.753Z,14.98
2022-10-30T20:38:34.402Z,15.00
2022-10-30T20:41:03.725Z,15.01
2022-10-30T20:43:31.932Z,14.96
2022-10-30T20:45:59.704Z,15.07
2022-10-30T20:48:27.265Z,14.97
2022-10-30T20:50:58.600Z,14.85
2022-10-30T20:53:26.177Z,14.86
2022-10-30T20:55:53.259Z,14.89
2022-10-30T20:58:20.527Z,14.77
2022-10-30T21:00:47.552Z,14.87
2022-10-30T21:03:14.832Z,14.86
2022-10-30T21:05:45.355Z,15.04
2022-10-30T21:08:14.040Z,15.04
2022-10-30T21:10:41.664Z,15.21
2022-10-30T21:13:10.367Z,15.34
2022-10-30T21:15:39.861Z,15.42
2022-10-30T21:18:07.218Z,15.38
2022-10-30T21:20:34.194Z,15.38
2022-10-30T21:23:01.024Z,15.34
2022-10-30T21:25:28.828Z,15.26
2022-10-30T21:27:58.711Z,15.00
2022-10-30T21:30:25.569Z,15.08
2022-10-30T21:32:52.386Z,15.04
2022-10-30T21:35:19.706Z,15.02
2022-10-30T21:37:46.616Z,14.91
2022-10-30T21:40:13.736Z,14.95
2022-10-30T21:42:40.745Z,15.06
2022-10-30T21:45:08.413Z,15.11
2022-10-30T21:47:35.323Z,15.20
2022-10-30T21:50:06.138Z,14.89
2022-10-30T21:52:34.897Z,14.95
2022-10-30T21:55:01.872Z,14.98
2022-10-30T21:57:30.037Z,14.83
2022-10-30T21:59:58.906Z,14.82
2022-10-30T22:02:31.504Z,14.86
2022-10-30T22:04:58.322Z,14.96
2022-10-30T22:07:25.300Z,15.13
2022-10-30T22:09:53.559Z,15.04
2022-10-30T22:12:20.530Z,15.15
2022-10-30T22:14:47.364Z,15.15
2022-10-30T22:17:14.208Z,15.00
2022-10-30T22:19:41.133Z,14.93
2022-10-30T22:22:08.083Z,14.88
2022-10-30T22:24:34.986Z,14.92
2022-10-30T22:27:01.841Z,14.82
2022-10-30T22:29:28.688Z,14.76
2022-10-30T22:31:55.890Z,14.79
2022-10-30T22:34:22.752Z,14.69
2022-10-30T22:36:49.609Z,14.47
2022-10-30T22:39:16.388Z,14.55
2022-10-30T22:41:43.281Z,14.71
2022-10-30T22:44:17.330Z,14.79
2022-10-30T22:46:44.712Z,14.75
2022-10-30T22:49:11.934Z,14.74
2022-10-30T22:51:39.675Z,14.68
2022-10-30T22:54:10.617Z,14.74
2022-10-30T22:56:38.160Z,14.79
2022-10-30T22:59:12.726Z,14.87
2022-10-30T23:01:40.719Z,14.92
2022-10-30T23:04:11.046Z,14.94
2022-10-30T23:06:38.019Z,15.06
2022-10-30T23:09:08.213Z,15.00
2022-10-30T23:11:35.560Z,14.95
2022-10-30T23:14:02.512Z,14.79
2022-10-30T23:16:29.643Z,14.73
2022-10-30T23:18:58.041Z,14.59
2022-10-30T23:21:27.558Z,14.48
2022-10-30T23:23:55.711Z,14.41
2022-10-30T23:26:33.977Z,14.28
2022-10-30T23:29:01.407Z,14.33
2022-10-30T23:31:37.897Z,14.38
2022-10-30T23:34:07.577Z,14.44
2022-10-30T23:36:34.412Z,14.50
2022-10-30T23:39:03.783Z,14.62
2022-10-30T23:41:32.610Z,14.58
2022-10-30T23:44:01.503Z,14.40
2022-10-30T23:46:28.998Z,14.40
2022-10-30T23:48:55.872Z,14.43
2022-10-30T23:51:23.386Z,14.39
2022-10-30T23:53:50.882Z,14.38
2022-10-30T23:56:18.370Z,14.42
2022-10-30T23:58:46.447Z,14.50
